KBFM

Mobile Downtown Airport

Mobile, Alabama, USA
METAR KBFM 251853Z 16007KT 10SM FEW017 SCT030 30/25 A3005 RMK AO2 SLP177 T03000250
Observed Flight Rules
Sep-25 @ 18:53 UTC (8 minutes ago) Visual Flight Rules
Wind Visibility Clouds
160° at 7 knots 10 miles
  • Few at 1,700' AGL
  • Scattered at 3,000' AGL
Temperatures Readings
Current 30°C / 86°F
Dewpoint 25°C / 77°F
Humidity 75%
Altimeter 30.05" Hg
Pressure 1017.7 hPa
Elevation 20
METAR KBFM 251853Z 16007KT 10SM FEW017 SCT030 30/25 A3005 RMK AO2 SLP177 T03000250
Observed Flight Rules
Sep-25 @ 18:53 UTC
(8 minutes ago)
VFR
Wind Visibility
160° at 7 knots 10 miles
Clouds
  • Few at 1,700' AGL
  • Scattered at 3,000' AGL
Temperature Dewpoint
30°C / 86°F 25°C / 77°F
Humidity Altimeter Pressure
75% 30.05" Hg 1017.7 hPa